Time;durP1;ratioP1;P1;durP2;ratioP2;P2;SDS_P1;SDS_P2;PMS_P1;PMS_P2;Temp;Humidity;BMP_temperature;BMP_pressure;BME280_temperature;BME280_humidity;BME280_pressure;Samples;Min_cycle;Max_cycle;Signal;HPM_P1;HPM_P2
2021/06/27 00:08:50;;;;;;;9.48;6.95;;;19.00;99.90;;;;;;6753882;88;20215;-77
2021/06/27 00:18:51;;;;;;;10.90;7.70;;;18.70;99.90;;;;;;6744426;88;20176;-76
2021/06/27 00:28:53;;;;;;;10.00;7.30;;;18.90;99.90;;;;;;6746587;88;20291;-77
2021/06/27 00:38:54;;;;;;;9.77;7.53;;;18.70;99.90;;;;;;6751249;88;20315;-77
2021/06/27 00:48:54;;;;;;;10.23;8.02;;;18.80;99.90;;;;;;6748875;88;20185;-77
2021/06/27 00:58:55;;;;;;;10.20;8.07;;;18.50;99.90;;;;;;6742203;88;20197;-77
2021/06/27 01:08:56;;;;;;;10.23;7.30;;;18.40;99.90;;;;;;6742541;88;20210;-78
2021/06/27 01:18:57;;;;;;;11.18;7.03;;;18.00;99.90;;;;;;6752357;88;20199;-78
2021/06/27 01:28:58;;;;;;;9.07;6.70;;;17.80;99.90;;;;;;6755665;88;20224;-77
2021/06/27 01:38:59;;;;;;;9.10;7.30;;;17.80;99.90;;;;;;6747079;88;20684;-77
2021/06/27 01:49:00;;;;;;;9.55;6.93;;;17.70;99.90;;;;;;6752024;88;20200;-78
2021/06/27 01:59:04;;;;;;;9.20;7.22;;;17.60;99.90;;;;;;6752475;88;20188;-77
2021/06/27 02:09:08;;;;;;;10.90;7.32;;;17.30;99.90;;;;;;6742051;88;20207;-77
2021/06/27 02:19:09;;;;;;;10.70;8.07;;;17.40;99.90;;;;;;6739905;88;20176;-77
2021/06/27 02:29:09;;;;;;;10.55;7.43;;;17.40;99.90;;;;;;6756912;88;20256;-77
2021/06/27 02:39:10;;;;;;;10.32;7.57;;;17.40;99.90;;;;;;6757364;88;20181;-76
2021/06/27 02:49:10;;;;;;;14.87;8.73;;;17.20;99.90;;;;;;6750224;88;20243;-78
2021/06/27 02:59:11;;;;;;;12.10;8.45;;;17.40;99.90;;;;;;6753113;88;20507;-77
2021/06/27 03:09:11;;;;;;;13.88;8.80;;;17.30;99.90;;;;;;6756241;88;20196;-78
2021/06/27 03:19:14;;;;;;;12.40;8.43;;;17.10;99.90;;;;;;6758324;88;20193;-77
2021/06/27 03:39:19;;;;;;;13.52;8.70;;;16.90;99.90;;;;;;6770177;88;21150;-81
2021/06/27 03:49:20;;;;;;;12.88;9.10;;;16.90;99.90;;;;;;6781158;88;20667;-80
2021/06/27 03:59:21;;;;;;;11.45;8.27;;;17.20;99.90;;;;;;6764128;88;20204;-80
2021/06/27 04:09:21;;;;;;;11.20;8.18;;;17.40;99.90;;;;;;6758299;88;20188;-80
2021/06/27 04:19:22;;;;;;;10.57;7.75;;;17.30;99.90;;;;;;6762210;88;20291;-81
2021/06/27 04:29:22;;;;;;;10.63;7.72;;;17.20;99.90;;;;;;6762726;88;20290;-80
2021/06/27 04:39:23;;;;;;;13.20;8.60;;;17.20;99.90;;;;;;6761956;88;20279;-79
2021/06/27 04:49:23;;;;;;;12.93;8.80;;;17.20;99.90;;;;;;6761834;88;20945;-79
2021/06/27 04:59:24;;;;;;;10.95;8.18;;;17.30;99.90;;;;;;6760804;88;20221;-80
2021/06/27 05:09:24;;;;;;;11.52;8.20;;;17.30;99.90;;;;;;6762670;88;20222;-80
2021/06/27 05:19:26;;;;;;;10.82;8.07;;;17.50;99.90;;;;;;6756974;88;20254;-80
2021/06/27 05:29:26;;;;;;;10.85;7.95;;;17.70;99.90;;;;;;6763655;88;20188;-80
2021/06/27 05:39:27;;;;;;;10.83;7.67;;;18.30;99.90;;;;;;6762128;88;20764;-80
2021/06/27 05:49:27;;;;;;;11.07;7.40;;;18.70;99.90;;;;;;6762707;88;20478;-80
2021/06/27 05:59:28;;;;;;;9.82;7.50;;;19.30;99.90;;;;;;6762146;88;20312;-79
2021/06/27 06:09:29;;;;;;;10.18;6.78;;;20.00;99.90;;;;;;6761601;88;20191;-81
2021/06/27 06:19:29;;;;;;;8.18;6.43;;;20.40;99.90;;;;;;6762932;87;22883;-81
2021/06/27 06:29:30;;;;;;;7.55;5.95;;;20.60;99.90;;;;;;6797424;87;20196;-80
2021/06/27 06:39:30;;;;;;;9.85;6.87;;;20.70;99.90;;;;;;6798869;87;20214;-80
2021/06/27 06:49:31;;;;;;;12.55;7.40;;;20.80;99.90;;;;;;6802025;87;20158;-81
2021/06/27 06:59:32;;;;;;;7.10;5.70;;;21.60;99.90;;;;;;6796168;87;20714;-81
2021/06/27 07:09:32;;;;;;;9.48;6.28;;;22.30;99.90;;;;;;6790356;87;20219;-80
2021/06/27 07:19:33;;;;;;;9.88;6.45;;;22.80;99.90;;;;;;6790829;87;20225;-80
2021/06/27 07:29:34;;;;;;;8.25;6.30;;;22.70;99.90;;;;;;6795637;87;20213;-82
2021/06/27 07:39:35;;;;;;;9.27;6.40;;;22.60;99.90;;;;;;6800909;87;20205;-83
2021/06/27 07:49:35;;;;;;;8.85;6.57;;;22.60;99.90;;;;;;6788199;87;20606;-77
2021/06/27 07:59:36;;;;;;;8.27;6.15;;;23.00;99.90;;;;;;6754686;87;20203;-78
2021/06/27 08:09:36;;;;;;;8.30;5.70;;;23.50;99.90;;;;;;6753877;87;20181;-79
2021/06/27 08:19:37;;;;;;;6.57;5.82;;;24.40;99.90;;;;;;6758280;87;20192;-78
2021/06/27 08:29:38;;;;;;;7.35;5.85;;;24.70;99.90;;;;;;6753924;87;20206;-78
2021/06/27 08:39:38;;;;;;;6.77;5.40;;;25.20;99.90;;;;;;6760496;87;20212;-77
2021/06/27 08:49:39;;;;;;;6.15;5.22;;;25.80;99.90;;;;;;6752584;87;20505;-78
2021/06/27 08:59:40;;;;;;;5.95;4.93;;;27.20;99.90;;;;;;6759450;87;20325;-77
2021/06/27 09:09:41;;;;;;;9.68;5.15;;;27.20;99.90;;;;;;6753575;87;20350;-78
2021/06/27 09:20:20;;;;;;;6.28;5.20;;;27.50;99.90;;;;;;6750791;87;20279;-80
2021/06/27 09:40:32;;;;;;;5.30;4.80;;;28.40;98.10;;;;;;6766345;87;20591;-79
2021/06/27 09:50:33;;;;;;;5.00;4.50;;;30.50;96.70;;;;;;6749321;87;20648;-79
2021/06/27 10:00:34;;;;;;;6.10;4.60;;;31.10;94.20;;;;;;6751091;88;20350;-80
2021/06/27 10:10:34;;;;;;;5.05;4.37;;;32.60;92.60;;;;;;6752041;88;20247;-78
2021/06/27 10:20:35;;;;;;;4.93;4.10;;;32.20;91.00;;;;;;6749378;87;20265;-78
2021/06/27 10:30:36;;;;;;;4.20;3.80;;;31.40;91.50;;;;;;6756705;87;20207;-79
2021/06/27 10:40:54;;;;;;;4.20;3.80;;;30.80;90.60;;;;;;6751327;87;20180;-78
2021/06/27 10:50:55;;;;;;;6.22;3.60;;;31.00;87.70;;;;;;6755441;87;20347;-78
2021/06/27 11:00:56;;;;;;;4.50;3.40;;;29.40;88.80;;;;;;6754366;87;20272;-78
2021/06/27 11:10:59;;;;;;;4.07;3.58;;;29.10;90.10;;;;;;6758010;87;20713;-79
2021/06/27 11:21:00;;;;;;;4.30;3.50;;;29.60;89.30;;;;;;6750580;87;20702;-78
2021/06/27 11:31:21;;;;;;;3.40;3.10;;;29.10;88.90;;;;;;6749848;88;20228;-78
2021/06/27 11:41:22;;;;;;;4.00;3.60;;;29.50;87.40;;;;;;6755782;87;20176;-78
2021/06/27 11:51:44;;;;;;;4.60;4.10;;;29.50;89.80;;;;;;6758763;87;20193;-79
2021/06/27 12:02:13;;;;;;;4.10;3.60;;;28.80;91.30;;;;;;6751150;87;20203;-79
2021/06/27 12:12:14;;;;;;;4.57;3.90;;;28.30;91.00;;;;;;6752520;88;20742;-78
2021/06/27 12:22:14;;;;;;;5.00;4.50;;;27.90;92.60;;;;;;6759265;88;20270;-77
2021/06/27 12:32:15;;;;;;;4.80;4.18;;;27.90;92.70;;;;;;6749054;88;20236;-78
2021/06/27 12:42:16;;;;;;;4.30;3.90;;;27.90;92.40;;;;;;6749140;87;20390;-78
2021/06/27 12:52:22;;;;;;;4.70;4.20;;;28.40;92.40;;;;;;6748345;88;20182;-78
2021/06/27 13:02:27;;;;;;;4.68;4.18;;;28.50;91.50;;;;;;6743371;88;20188;-79
2021/06/27 13:12:29;;;;;;;5.85;3.90;;;29.30;91.80;;;;;;6765556;88;20181;-79
2021/06/27 13:22:29;;;;;;;4.30;3.50;;;29.50;91.10;;;;;;6765555;88;20188;-79
2021/06/27 13:32:30;;;;;;;4.07;3.37;;;29.90;90.40;;;;;;6763327;87;20532;-78
2021/06/27 13:42:30;;;;;;;4.33;3.70;;;29.60;90.10;;;;;;6749537;87;20196;-78
2021/06/27 13:52:31;;;;;;;4.00;3.50;;;29.40;89.80;;;;;;6768615;87;20575;-79
2021/06/27 14:02:32;;;;;;;4.10;3.60;;;29.20;90.00;;;;;;6765727;88;20199;-79
2021/06/27 14:12:32;;;;;;;4.78;3.37;;;29.50;90.00;;;;;;6763142;88;20218;-77
2021/06/27 14:22:33;;;;;;;5.05;4.10;;;28.80;89.80;;;;;;6762621;88;20317;-78
2021/06/27 14:32:34;;;;;;;6.10;3.63;;;28.40;90.80;;;;;;6766112;88;20216;-78
2021/06/27 14:42:35;;;;;;;4.65;3.10;;;28.40;90.00;;;;;;6753503;87;20673;-78
2021/06/27 14:52:35;;;;;;;4.28;3.03;;;28.10;89.60;;;;;;6748813;88;20649;-78
2021/06/27 15:02:36;;;;;;;4.95;4.05;;;27.60;89.80;;;;;;6755750;87;20193;-78
2021/06/27 15:12:37;;;;;;;5.90;3.63;;;27.40;91.10;;;;;;6756787;87;20203;-78
2021/06/27 15:22:37;;;;;;;7.70;4.87;;;26.90;94.70;;;;;;6743794;88;20364;-78
2021/06/27 15:32:58;;;;;;;7.45;4.50;;;25.70;99.00;;;;;;6746145;77;20201;-77
2021/06/27 15:42:59;;;;;;;5.65;4.62;;;24.60;99.90;;;;;;6752659;88;20374;-78
2021/06/27 15:53:00;;;;;;;9.75;5.85;;;22.90;99.90;;;;;;6749190;88;20288;-80
2021/06/27 16:03:01;;;;;;;10.02;6.82;;;23.00;99.90;;;;;;6766759;88;20177;-81
2021/06/27 16:13:02;;;;;;;8.20;4.50;;;22.60;99.90;;;;;;6759289;87;20492;-77
2021/06/27 16:23:04;;;;;;;10.38;5.78;;;21.50;99.90;;;;;;6744245;88;20246;-76
2021/06/27 16:33:04;;;;;;;9.93;6.35;;;20.50;99.90;;;;;;6740986;88;20205;-75
2021/06/27 16:43:05;;;;;;;11.70;7.57;;;20.50;99.90;;;;;;6744643;88;20197;-76
2021/06/27 16:53:05;;;;;;;12.55;8.48;;;21.20;99.90;;;;;;6738561;88;20191;-75
2021/06/27 17:03:06;;;;;;;9.93;7.60;;;21.10;99.90;;;;;;6752985;88;20652;-76
2021/06/27 17:13:10;;;;;;;11.88;7.87;;;20.80;99.90;;;;;;6748661;88;20634;-75
2021/06/27 17:23:11;;;;;;;14.93;8.67;;;20.80;99.90;;;;;;6741884;88;20953;-76
2021/06/27 17:33:12;;;;;;;11.32;7.75;;;20.90;99.90;;;;;;6744403;87;20191;-76
2021/06/27 17:43:14;;;;;;;13.62;9.25;;;21.00;99.90;;;;;;6742340;88;20231;-77
2021/06/27 17:53:15;;;;;;;10.88;8.10;;;21.20;99.90;;;;;;6746007;88;20317;-77
2021/06/27 18:03:16;;;;;;;12.27;8.90;;;21.30;99.90;;;;;;6742586;88;20193;-76
2021/06/27 18:13:16;;;;;;;13.95;10.15;;;21.20;99.90;;;;;;6745280;88;20272;-76
2021/06/27 18:23:18;;;;;;;11.45;9.43;;;21.50;99.90;;;;;;6746789;88;20217;-76
2021/06/27 18:33:21;;;;;;;11.12;9.10;;;21.10;99.90;;;;;;6748909;87;20255;-76
2021/06/27 18:43:21;;;;;;;13.13;8.88;;;21.10;99.90;;;;;;6746115;88;20666;-76
2021/06/27 18:53:22;;;;;;;15.27;11.98;;;21.00;99.90;;;;;;6752827;88;20288;-76
2021/06/27 19:03:22;;;;;;;12.88;9.45;;;21.30;99.90;;;;;;6755479;88;20227;-76
2021/06/27 19:13:23;;;;;;;13.35;9.25;;;20.90;99.90;;;;;;6749494;88;20318;-77
2021/06/27 19:23:28;;;;;;;12.88;9.95;;;21.00;99.90;;;;;;6736311;88;20201;-75
2021/06/27 19:33:28;;;;;;;14.70;10.55;;;20.80;99.90;;;;;;6746924;87;20376;-76
2021/06/27 19:43:29;;;;;;;16.52;11.50;;;20.60;99.90;;;;;;6748994;88;20223;-76
2021/06/27 19:53:32;;;;;;;18.83;13.15;;;20.50;99.90;;;;;;6746892;88;20176;-75
2021/06/27 20:03:33;;;;;;;17.62;13.65;;;20.50;99.90;;;;;;6747342;88;20681;-74
2021/06/27 20:13:33;;;;;;;21.10;13.88;;;20.40;99.90;;;;;;6747091;88;20229;-75
2021/06/27 20:23:34;;;;;;;20.67;13.80;;;20.50;99.90;;;;;;6742191;88;20215;-76
2021/06/27 20:33:35;;;;;;;16.55;12.18;;;20.40;99.90;;;;;;6745732;87;20686;-76
2021/06/27 20:43:37;;;;;;;15.38;9.95;;;20.30;99.90;;;;;;6739359;88;20181;-75
2021/06/27 20:53:37;;;;;;;13.13;10.38;;;20.20;99.90;;;;;;6745255;88;20245;-75
2021/06/27 21:03:39;;;;;;;14.68;9.98;;;20.00;99.90;;;;;;6743782;88;20213;-75
2021/06/27 21:13:40;;;;;;;14.82;9.82;;;20.10;99.90;;;;;;6741446;88;20235;-78
2021/06/27 21:23:40;;;;;;;15.02;10.13;;;20.10;99.90;;;;;;6748104;88;20313;-75
2021/06/27 21:33:41;;;;;;;13.57;10.00;;;20.30;99.90;;;;;;6745626;77;20190;-76
2021/06/27 21:43:42;;;;;;;14.20;9.85;;;20.00;99.90;;;;;;6749129;88;20646;-76
2021/06/27 21:53:43;;;;;;;15.32;11.05;;;19.70;99.90;;;;;;6749252;88;20197;-76
2021/06/27 22:03:44;;;;;;;14.00;10.02;;;19.70;99.90;;;;;;6751037;88;20686;-76
2021/06/27 22:13:44;;;;;;;15.07;10.48;;;19.70;99.90;;;;;;6753538;87;20202;-75
2021/06/27 22:23:45;;;;;;;13.40;10.13;;;19.60;99.90;;;;;;6751131;87;20196;-76
2021/06/27 22:33:46;;;;;;;13.60;9.77;;;19.50;99.90;;;;;;6752487;87;20310;-76
2021/06/27 22:43:46;;;;;;;15.43;9.98;;;19.40;99.90;;;;;;6751298;87;20242;-75
2021/06/27 22:53:47;;;;;;;14.05;10.65;;;19.20;99.90;;;;;;6752558;87;20606;-76
2021/06/27 23:03:48;;;;;;;13.05;10.43;;;19.20;99.90;;;;;;6753166;87;20189;-75
2021/06/27 23:13:49;;;;;;;15.20;11.25;;;19.40;99.90;;;;;;6751592;87;20691;-75
2021/06/27 23:23:49;;;;;;;17.30;10.75;;;19.30;99.90;;;;;;6757579;87;20255;-77
2021/06/27 23:33:50;;;;;;;15.68;10.90;;;19.30;99.90;;;;;;6754617;87;20696;-76
2021/06/27 23:43:51;;;;;;;14.98;11.00;;;19.20;99.90;;;;;;6753647;87;20165;-76
2021/06/27 23:53:51;;;;;;;18.37;10.83;;;19.10;99.90;;;;;;6746762;87;20175;-77
